Time;durP1;ratioP1;P1;durP2;ratioP2;P2;SDS_P1;SDS_P2;PMS_P1;PMS_P2;Temp;Humidity;BMP_temperature;BMP_pressure;BME280_temperature;BME280_humidity;BME280_pressure;Samples;Min_cycle;Max_cycle;Signal;HPM_P1;HPM_P2
2021/05/05 00:02:29;;;;;;;1.01;0.93;;;;;;;19.38;44.87;99241.46;;;;-52
2021/05/05 00:05:29;;;;;;;1.01;1.00;;;;;;;19.37;44.83;99254.72;;;;-52
2021/05/05 00:08:29;;;;;;;0.87;0.87;;;;;;;19.36;44.84;99241.16;;;;-52
2021/05/05 00:11:29;;;;;;;1.72;0.88;;;;;;;19.35;44.90;99246.39;;;;-52
2021/05/05 00:14:29;;;;;;;0.98;0.98;;;;;;;19.34;44.87;99257.13;;;;-55
2021/05/05 00:17:29;;;;;;;1.29;1.03;;;;;;;19.33;44.88;99261.34;;;;-54
2021/05/05 00:20:29;;;;;;;1.04;1.00;;;;;;;19.32;44.88;99258.54;;;;-54
2021/05/05 00:23:29;;;;;;;0.98;0.98;;;;;;;19.31;44.88;99264.55;;;;-54
2021/05/05 00:26:29;;;;;;;0.93;0.93;;;;;;;19.30;44.89;99269.69;;;;-54
2021/05/05 00:29:29;;;;;;;0.89;0.89;;;;;;;19.29;44.92;99270.75;;;;-54
2021/05/05 00:32:29;;;;;;;0.95;0.95;;;;;;;19.28;44.88;99257.99;;;;-54
2021/05/05 00:35:29;;;;;;;0.90;0.90;;;;;;;19.26;44.91;99248.36;;;;-54
2021/05/05 00:38:29;;;;;;;1.31;1.09;;;;;;;19.26;44.94;99243.23;;;;-55
2021/05/05 00:41:29;;;;;;;0.89;0.89;;;;;;;19.25;44.91;99235.38;;;;-54
2021/05/05 00:44:29;;;;;;;0.97;0.94;;;;;;;19.24;44.90;99232.41;;;;-54
2021/05/05 00:47:29;;;;;;;0.83;0.81;;;;;;;19.24;44.93;99233.70;;;;-54
2021/05/05 00:50:29;;;;;;;0.90;0.90;;;;;;;19.23;44.89;99228.41;;;;-54
2021/05/05 00:53:29;;;;;;;0.88;0.88;;;;;;;19.22;44.93;99225.52;;;;-54
2021/05/05 00:56:29;;;;;;;1.27;0.89;;;;;;;19.21;44.92;99221.61;;;;-54
2021/05/05 00:59:29;;;;;;;0.85;0.85;;;;;;;19.21;44.90;99216.19;;;;-52
2021/05/05 01:02:29;;;;;;;1.04;0.89;;;;;;;19.20;44.92;99218.33;;;;-51
2021/05/05 01:05:29;;;;;;;0.91;0.91;;;;;;;19.19;44.89;99212.30;;;;-51
2021/05/05 01:08:29;;;;;;;0.89;0.89;;;;;;;19.18;44.93;99203.47;;;;-51
2021/05/05 01:11:29;;;;;;;1.09;0.85;;;;;;;19.18;44.93;99201.70;;;;-57
2021/05/05 01:14:29;;;;;;;0.75;0.75;;;;;;;19.17;44.94;99192.19;;;;-55
2021/05/05 01:17:32;;;;;;;1.38;0.97;;;;;;;19.16;44.92;99193.68;;;;-55
2021/05/05 01:20:29;;;;;;;0.77;0.77;;;;;;;19.15;44.92;99187.18;;;;-55
2021/05/05 01:23:29;;;;;;;0.81;0.81;;;;;;;19.14;44.96;99181.45;;;;-56
2021/05/05 01:26:30;;;;;;;0.83;0.83;;;;;;;19.14;44.95;99182.91;;;;-52
2021/05/05 01:29:29;;;;;;;1.73;0.87;;;;;;;19.12;44.97;99184.46;;;;-52
2021/05/05 01:32:29;;;;;;;0.93;0.88;;;;;;;19.11;44.97;99190.98;;;;-51
2021/05/05 01:35:29;;;;;;;0.89;0.88;;;;;;;19.11;44.98;99196.89;;;;-51
2021/05/05 01:38:29;;;;;;;1.11;1.00;;;;;;;19.10;44.99;99195.95;;;;-52
2021/05/05 01:41:29;;;;;;;0.93;0.93;;;;;;;19.09;44.99;99201.73;;;;-51
2021/05/05 01:44:29;;;;;;;0.90;0.90;;;;;;;19.08;44.99;99206.67;;;;-55
2021/05/05 01:47:29;;;;;;;0.71;0.71;;;;;;;19.08;45.04;99211.47;;;;-56
2021/05/05 01:50:29;;;;;;;0.86;0.86;;;;;;;19.07;45.01;99211.39;;;;-55
2021/05/05 01:53:29;;;;;;;0.96;0.91;;;;;;;19.06;45.00;99211.74;;;;-51
2021/05/05 01:56:29;;;;;;;0.90;0.90;;;;;;;19.05;45.04;99213.22;;;;-52
2021/05/05 01:59:29;;;;;;;1.20;0.91;;;;;;;19.05;45.02;99215.40;;;;-51
2021/05/05 02:02:29;;;;;;;0.99;0.98;;;;;;;19.04;45.02;99219.95;;;;-51
2021/05/05 02:05:29;;;;;;;0.83;0.83;;;;;;;19.04;45.06;99216.56;;;;-51
2021/05/05 02:08:29;;;;;;;0.83;0.83;;;;;;;19.03;45.04;99211.80;;;;-55
2021/05/05 02:11:29;;;;;;;0.90;0.90;;;;;;;19.02;45.04;99201.96;;;;-55
2021/05/05 02:14:29;;;;;;;1.23;0.90;;;;;;;19.01;45.04;99179.25;;;;-56
2021/05/05 02:17:29;;;;;;;0.75;0.75;;;;;;;19.00;45.06;99172.59;;;;-55
2021/05/05 02:20:29;;;;;;;0.90;0.90;;;;;;;19.00;45.03;99173.33;;;;-51
2021/05/05 02:23:29;;;;;;;0.88;0.88;;;;;;;18.99;45.02;99161.98;;;;-52
2021/05/05 02:26:29;;;;;;;0.86;0.86;;;;;;;18.98;45.06;99167.35;;;;-51
2021/05/05 02:29:29;;;;;;;0.97;0.97;;;;;;;18.97;45.06;99170.69;;;;-51
2021/05/05 02:32:29;;;;;;;0.90;0.90;;;;;;;18.96;45.05;99184.57;;;;-51
2021/05/05 02:35:29;;;;;;;1.10;1.00;;;;;;;18.96;45.09;99176.36;;;;-52
2021/05/05 02:38:29;;;;;;;0.77;0.77;;;;;;;18.95;45.06;99175.11;;;;-52
2021/05/05 02:41:29;;;;;;;0.84;0.84;;;;;;;18.94;45.09;99191.25;;;;-51
2021/05/05 02:44:29;;;;;;;0.82;0.82;;;;;;;18.94;45.08;99206.10;;;;-51
2021/05/05 02:47:29;;;;;;;0.91;0.87;;;;;;;18.94;45.08;99203.50;;;;-51
2021/05/05 02:50:29;;;;;;;0.86;0.86;;;;;;;18.92;45.14;99208.72;;;;-51
2021/05/05 02:53:29;;;;;;;0.84;0.84;;;;;;;18.92;45.14;99208.16;;;;-52
2021/05/05 02:56:29;;;;;;;1.01;1.00;;;;;;;18.92;45.11;99202.33;;;;-55
2021/05/05 02:59:29;;;;;;;0.80;0.80;;;;;;;18.91;45.13;99197.15;;;;-55
2021/05/05 03:02:29;;;;;;;0.90;0.90;;;;;;;18.90;45.09;99187.08;;;;-55
2021/05/05 03:05:29;;;;;;;0.81;0.81;;;;;;;18.90;45.10;99187.24;;;;-52
2021/05/05 03:08:29;;;;;;;0.80;0.80;;;;;;;18.89;45.11;99193.52;;;;-52
2021/05/05 03:11:29;;;;;;;0.90;0.90;;;;;;;18.88;45.12;99202.92;;;;-52
2021/05/05 03:14:29;;;;;;;0.71;0.71;;;;;;;18.88;45.10;99207.80;;;;-52
2021/05/05 03:17:29;;;;;;;0.90;0.90;;;;;;;18.88;45.13;99212.03;;;;-52
2021/05/05 03:20:29;;;;;;;0.87;0.87;;;;;;;18.87;45.14;99207.66;;;;-51
2021/05/05 03:23:29;;;;;;;0.80;0.80;;;;;;;18.87;45.05;99199.94;;;;-51
2021/05/05 03:26:29;;;;;;;0.70;0.70;;;;;;;18.86;45.12;99202.40;;;;-51
2021/05/05 03:29:29;;;;;;;0.80;0.80;;;;;;;18.85;45.12;99202.81;;;;-52
2021/05/05 03:32:29;;;;;;;0.90;0.90;;;;;;;18.85;45.15;99202.16;;;;-51
2021/05/05 03:35:29;;;;;;;0.71;0.71;;;;;;;18.84;45.16;99202.27;;;;-51
2021/05/05 03:38:29;;;;;;;0.80;0.80;;;;;;;18.83;45.16;99199.83;;;;-51
2021/05/05 03:41:30;;;;;;;0.80;0.80;;;;;;;18.83;45.17;99200.73;;;;-51
2021/05/05 03:44:29;;;;;;;0.85;0.85;;;;;;;18.83;45.12;99204.06;;;;-51
2021/05/05 03:47:29;;;;;;;0.91;0.91;;;;;;;18.82;45.14;99204.38;;;;-53
2021/05/05 03:50:29;;;;;;;0.96;0.95;;;;;;;18.82;45.19;99208.36;;;;-52
2021/05/05 03:53:29;;;;;;;0.75;0.75;;;;;;;18.81;45.18;99211.63;;;;-54
2021/05/05 03:56:29;;;;;;;0.85;0.85;;;;;;;18.80;45.18;99216.52;;;;-54
2021/05/05 03:59:29;;;;;;;0.99;0.79;;;;;;;18.80;45.15;99216.83;;;;-54
2021/05/05 04:02:29;;;;;;;0.80;0.80;;;;;;;18.79;45.18;99216.42;;;;-51
2021/05/05 04:05:29;;;;;;;0.89;0.89;;;;;;;18.79;45.09;99223.81;;;;-54
2021/05/05 04:08:29;;;;;;;0.80;0.80;;;;;;;18.78;45.16;99228.58;;;;-54
2021/05/05 04:11:29;;;;;;;0.77;0.77;;;;;;;18.78;45.18;99226.95;;;;-54
2021/05/05 04:14:59;;;;;;;0.70;0.70;;;;;;;18.77;45.13;99230.53;;;;-54
2021/05/05 04:17:59;;;;;;;0.94;0.85;;;;;;;18.77;45.16;99234.13;;;;-53
2021/05/05 04:41:03;;;;;;;3.74;1.49;;;;;;;18.44;46.30;99280.19;;;;-51
2021/05/05 04:44:03;;;;;;;2.87;1.39;;;;;;;18.40;46.39;99282.09;;;;-51
2021/05/05 04:47:04;;;;;;;4.54;1.57;;;;;;;18.36;46.44;99295.48;;;;-51
2021/05/05 04:50:04;;;;;;;1.82;1.44;;;;;;;18.33;46.52;99295.44;;;;-51
2021/05/05 04:53:04;;;;;;;2.07;1.41;;;;;;;18.28;46.71;99296.60;;;;-52
2021/05/05 04:56:04;;;;;;;2.96;1.60;;;;;;;18.24;46.80;99304.25;;;;-52
2021/05/05 04:59:04;;;;;;;3.39;1.60;;;;;;;18.21;46.82;99306.72;;;;-51
2021/05/05 05:02:04;;;;;;;3.57;1.74;;;;;;;18.17;46.97;99311.20;;;;-48
2021/05/05 05:05:05;;;;;;;4.21;1.74;;;;;;;18.18;46.80;99309.91;;;;-48
2021/05/05 05:08:04;;;;;;;3.54;1.63;;;;;;;18.28;46.57;99312.92;;;;-53
2021/05/05 05:11:04;;;;;;;3.18;1.57;;;;;;;18.34;46.56;99318.94;;;;-49
2021/05/05 05:14:03;;;;;;;2.13;1.30;;;;;;;18.39;46.49;99326.87;;;;-54
2021/05/05 05:17:04;;;;;;;3.46;1.40;;;;;;;18.43;46.44;99328.70;;;;-57
2021/05/05 05:20:06;;;;;;;2.03;1.35;;;;;;;18.48;46.50;99335.31;;;;-48
2021/05/05 05:23:03;;;;;;;1.86;1.19;;;;;;;18.50;46.33;99339.42;;;;-51
2021/05/05 05:26:04;;;;;;;2.13;1.20;;;;;;;18.53;46.25;99343.72;;;;-50
2021/05/05 05:29:03;;;;;;;2.27;1.29;;;;;;;18.56;46.18;99348.89;;;;-50
2021/05/05 05:32:04;;;;;;;1.93;1.39;;;;;;;18.60;46.09;99353.98;;;;-48
2021/05/05 05:35:04;;;;;;;1.76;1.28;;;;;;;18.63;46.01;99360.27;;;;-49
2021/05/05 05:38:04;;;;;;;1.27;1.14;;;;;;;18.66;45.94;99363.89;;;;-48
2021/05/05 05:41:04;;;;;;;2.10;1.27;;;;;;;18.69;45.92;99365.41;;;;-47
2021/05/05 05:44:04;;;;;;;1.17;1.09;;;;;;;18.73;45.90;99365.94;;;;-47
2021/05/05 05:47:03;;;;;;;2.64;1.20;;;;;;;18.75;45.86;99370.95;;;;-47
2021/05/05 05:50:04;;;;;;;1.56;1.13;;;;;;;18.80;45.82;99372.48;;;;-47
2021/05/05 05:53:03;;;;;;;2.63;1.15;;;;;;;18.82;45.76;99374.19;;;;-47
2021/05/05 05:56:04;;;;;;;1.51;1.18;;;;;;;18.85;45.75;99373.34;;;;-48
2021/05/05 05:59:04;;;;;;;1.63;1.15;;;;;;;18.88;45.72;99377.94;;;;-47
2021/05/05 06:02:03;;;;;;;1.25;1.08;;;;;;;18.90;45.66;99378.07;;;;-47
2021/05/05 06:05:04;;;;;;;1.36;1.08;;;;;;;18.91;45.63;99382.46;;;;-49
2021/05/05 06:08:04;;;;;;;1.20;1.10;;;;;;;18.93;45.64;99384.16;;;;-49
2021/05/05 06:11:04;;;;;;;1.20;1.10;;;;;;;18.95;45.59;99385.20;;;;-49
2021/05/05 06:14:04;;;;;;;1.20;1.10;;;;;;;18.97;45.57;99388.75;;;;-53
2021/05/05 06:17:04;;;;;;;1.05;0.97;;;;;;;18.97;45.54;99387.94;;;;-51
2021/05/05 06:20:04;;;;;;;1.05;0.91;;;;;;;18.99;45.52;99392.08;;;;-49
2021/05/05 06:23:04;;;;;;;1.66;1.11;;;;;;;19.02;45.48;99394.06;;;;-49
2021/05/05 06:26:03;;;;;;;1.10;1.00;;;;;;;19.02;45.46;99399.75;;;;-50
2021/05/05 06:29:04;;;;;;;1.14;0.97;;;;;;;19.03;45.47;99398.91;;;;-49
2021/05/05 06:32:04;;;;;;;1.51;1.13;;;;;;;19.04;45.42;99407.04;;;;-49
2021/05/05 06:35:03;;;;;;;1.54;1.11;;;;;;;19.05;45.39;99407.83;;;;-50
2021/05/05 06:38:04;;;;;;;1.21;1.10;;;;;;;19.05;45.36;99413.86;;;;-49
2021/05/05 06:41:03;;;;;;;4.73;1.19;;;;;;;19.05;45.56;99407.03;;;;-51
2021/05/05 06:44:04;;;;;;;1.63;1.08;;;;;;;19.06;46.04;99410.17;;;;-51
2021/05/05 06:47:04;;;;;;;1.19;1.09;;;;;;;19.07;46.16;99408.63;;;;-50
2021/05/05 06:50:04;;;;;;;2.11;1.04;;;;;;;19.08;46.08;99406.68;;;;-53
2021/05/05 06:53:04;;;;;;;2.54;1.19;;;;;;;19.10;45.91;99415.51;;;;-52
2021/05/05 06:56:04;;;;;;;2.11;1.02;;;;;;;19.12;45.68;99414.92;;;;-50
2021/05/05 06:59:04;;;;;;;1.14;1.04;;;;;;;19.11;45.86;99414.77;;;;-56
2021/05/05 07:02:04;;;;;;;5.03;1.21;;;;;;;19.13;46.05;99418.64;;;;-50
2021/05/05 07:05:03;;;;;;;2.42;1.20;;;;;;;19.14;46.11;99424.81;;;;-52
2021/05/05 07:08:04;;;;;;;1.31;1.17;;;;;;;19.14;45.97;99427.73;;;;-52
2021/05/05 07:11:04;;;;;;;2.05;1.04;;;;;;;19.15;45.98;99431.95;;;;-54
2021/05/05 07:14:03;;;;;;;1.57;1.13;;;;;;;19.16;45.90;99434.47;;;;-54
2021/05/05 07:17:03;;;;;;;2.07;1.29;;;;;;;19.17;45.92;99430.45;;;;-52
2021/05/05 07:20:04;;;;;;;3.15;1.10;;;;;;;19.18;45.92;99436.23;;;;-57
2021/05/05 07:23:03;;;;;;;2.51;1.20;;;;;;;19.19;46.04;99438.81;;;;-52
2021/05/05 07:26:03;;;;;;;1.52;1.18;;;;;;;19.20;46.11;99432.57;;;;-52
2021/05/05 07:29:04;;;;;;;2.06;1.20;;;;;;;19.21;46.04;99448.53;;;;-58
2021/05/05 07:32:03;;;;;;;1.23;1.11;;;;;;;19.22;46.05;99451.39;;;;-51
2021/05/05 07:35:06;;;;;;;1.30;1.20;;;;;;;19.22;46.16;99462.02;;;;-50
2021/05/05 07:38:22;;;;;;;3.62;1.23;;;;;;;19.22;46.18;99458.13;;;;-47
2021/05/05 07:46:09;;;;;;;1.90;1.28;;;;;;;19.23;44.83;99469.97;;;;-48
2021/05/05 07:49:06;;;;;;;2.45;1.28;;;;;;;19.24;45.01;99463.14;;;;-55
2021/05/05 07:52:34;;;;;;;1.35;1.21;;;;;;;19.25;45.05;99468.25;;;;-48
2021/05/05 07:55:33;;;;;;;1.84;1.20;;;;;;;19.26;45.15;99468.89;;;;-50
2021/05/05 07:58:34;;;;;;;2.89;1.27;;;;;;;19.27;45.06;99470.18;;;;-47
2021/05/05 08:01:03;;;;;;;1.47;1.14;;;;;;;19.28;45.25;99452.30;;;;-52
2021/05/05 08:04:04;;;;;;;3.93;1.52;;;;;;;19.27;45.37;99454.97;;;;-51
2021/05/05 08:07:04;;;;;;;5.71;1.58;;;;;;;19.28;44.83;99455.16;;;;-50
2021/05/05 08:10:03;;;;;;;2.61;1.29;;;;;;;19.27;45.17;99456.28;;;;-51
2021/05/05 08:13:03;;;;;;;2.67;1.43;;;;;;;19.27;45.36;99450.27;;;;-50
2021/05/05 08:16:06;;;;;;;3.92;1.42;;;;;;;19.27;45.42;99445.15;;;;-53
2021/05/05 08:19:03;;;;;;;1.91;1.29;;;;;;;19.28;45.34;99441.72;;;;-50
2021/05/05 08:22:03;;;;;;;3.20;1.20;;;;;;;19.28;45.40;99449.63;;;;-53
2021/05/05 08:25:04;;;;;;;2.29;1.39;;;;;;;19.29;45.45;99449.52;;;;-48
2021/05/05 08:28:03;;;;;;;2.69;1.36;;;;;;;19.29;45.47;99451.70;;;;-52
2021/05/05 08:31:04;;;;;;;1.22;1.12;;;;;;;19.31;45.45;99454.38;;;;-52
2021/05/05 08:34:03;;;;;;;3.31;1.30;;;;;;;19.32;45.39;99459.97;;;;-48
2021/05/05 08:37:03;;;;;;;2.51;1.29;;;;;;;19.32;45.46;99460.45;;;;-50
2021/05/05 08:40:04;;;;;;;3.73;1.31;;;;;;;19.30;45.44;99454.38;;;;-51
2021/05/05 08:43:03;;;;;;;2.51;1.52;;;;;;;19.32;45.51;99458.67;;;;-56
2021/05/05 08:46:05;;;;;;;1.98;1.37;;;;;;;19.33;45.49;99455.75;;;;-51
2021/05/05 08:49:03;;;;;;;1.72;1.24;;;;;;;19.33;45.49;99453.87;;;;-52
2021/05/05 08:52:03;;;;;;;1.86;1.37;;;;;;;19.33;45.46;99452.34;;;;-52
2021/05/05 08:55:04;;;;;;;4.19;1.30;;;;;;;19.33;45.43;99450.38;;;;-49
2021/05/05 08:58:04;;;;;;;1.91;1.22;;;;;;;19.33;45.48;99451.44;;;;-50
2021/05/05 09:01:03;;;;;;;1.81;1.32;;;;;;;19.33;45.49;99448.92;;;;-51
2021/05/05 09:04:04;;;;;;;2.85;1.21;;;;;;;19.33;45.48;99449.73;;;;-52
2021/05/05 09:07:03;;;;;;;2.25;1.20;;;;;;;19.33;45.53;99452.41;;;;-56
2021/05/05 09:10:04;;;;;;;1.80;1.20;;;;;;;19.33;45.52;99463.62;;;;-54
2021/05/05 09:13:04;;;;;;;3.23;1.22;;;;;;;19.35;45.50;99469.78;;;;-51
2021/05/05 09:16:03;;;;;;;2.04;1.33;;;;;;;19.35;45.54;99474.97;;;;-53
2021/05/05 09:19:03;;;;;;;1.61;1.22;;;;;;;19.35;45.55;99468.57;;;;-56
2021/05/05 09:22:03;;;;;;;2.24;1.12;;;;;;;19.35;45.59;99465.95;;;;-51
2021/05/05 09:25:03;;;;;;;2.10;1.24;;;;;;;19.36;45.56;99466.92;;;;-49
2021/05/05 09:28:04;;;;;;;2.89;1.20;;;;;;;19.34;45.49;99461.67;;;;-49
2021/05/05 09:31:03;;;;;;;1.63;1.30;;;;;;;19.33;45.43;99466.54;;;;-49
2021/05/05 09:34:04;;;;;;;2.45;1.14;;;;;;;19.32;45.41;99479.70;;;;-49
2021/05/05 09:37:03;;;;;;;2.67;1.23;;;;;;;19.30;45.36;99521.01;;;;-49
2021/05/05 09:40:03;;;;;;;1.25;1.07;;;;;;;19.28;45.29;99531.02;;;;-49
2021/05/05 09:43:04;;;;;;;2.14;1.20;;;;;;;19.27;45.29;99541.66;;;;-43
2021/05/05 09:46:03;;;;;;;1.82;1.27;;;;;;;19.25;44.67;99536.15;;;;-43
2021/05/05 09:49:03;;;;;;;1.58;1.39;;;;;;;19.27;45.02;99539.95;;;;-45
2021/05/05 09:52:05;;;;;;;2.71;1.39;;;;;;;19.27;45.15;99550.25;;;;-45
2021/05/05 09:55:05;;;;;;;1.49;1.30;;;;;;;19.28;45.25;99567.57;;;;-47
2021/05/05 09:58:04;;;;;;;2.37;1.30;;;;;;;19.29;45.28;99601.17;;;;-48
2021/05/05 10:01:03;;;;;;;1.87;1.21;;;;;;;19.31;45.30;99606.69;;;;-47
2021/05/05 10:04:04;;;;;;;1.27;1.08;;;;;;;19.31;45.35;99631.95;;;;-51
2021/05/05 10:07:04;;;;;;;1.85;1.22;;;;;;;19.32;45.34;99637.63;;;;-51
2021/05/05 10:10:03;;;;;;;3.24;1.33;;;;;;;19.33;45.31;99641.69;;;;-51
2021/05/05 10:13:03;;;;;;;1.59;1.26;;;;;;;19.34;45.29;99648.02;;;;-50
2021/05/05 10:16:03;;;;;;;1.57;1.23;;;;;;;19.34;45.31;99637.63;;;;-56
2021/05/05 10:19:03;;;;;;;2.67;1.15;;;;;;;19.35;45.32;99635.59;;;;-47
2021/05/05 10:22:04;;;;;;;1.83;1.19;;;;;;;19.36;45.34;99642.81;;;;-48
2021/05/05 10:25:03;;;;;;;1.57;1.18;;;;;;;19.36;45.39;99640.30;;;;-50
2021/05/05 10:28:03;;;;;;;1.69;1.20;;;;;;;19.37;45.38;99637.27;;;;-48
2021/05/05 10:31:04;;;;;;;3.54;1.21;;;;;;;19.37;45.38;99628.66;;;;-47
2021/05/05 10:34:10;;;;;;;1.87;1.20;;;;;;;19.37;45.38;99641.91;;;;-50
2021/05/05 10:37:04;;;;;;;2.73;1.23;;;;;;;19.35;45.30;99645.08;;;;-50
2021/05/05 10:40:04;;;;;;;2.18;1.11;;;;;;;19.34;45.28;99654.20;;;;-50
2021/05/05 10:43:03;;;;;;;2.07;1.28;;;;;;;19.34;45.24;99650.53;;;;-50
2021/05/05 10:46:04;;;;;;;1.31;1.15;;;;;;;19.33;45.24;99653.62;;;;-50
2021/05/05 10:49:03;;;;;;;1.73;1.28;;;;;;;19.33;45.19;99663.30;;;;-50
2021/05/05 10:52:03;;;;;;;1.38;1.19;;;;;;;19.32;45.17;99666.08;;;;-50
2021/05/05 10:55:04;;;;;;;2.10;1.03;;;;;;;19.32;45.13;99671.36;;;;-50
2021/05/05 10:58:03;;;;;;;1.75;1.20;;;;;;;19.31;45.12;99674.29;;;;-50
2021/05/05 11:01:04;;;;;;;1.18;1.01;;;;;;;19.30;45.11;99684.05;;;;-50
2021/05/05 11:04:04;;;;;;;4.08;1.14;;;;;;;19.29;45.08;99698.00;;;;-50
2021/05/05 11:07:03;;;;;;;2.29;1.17;;;;;;;19.29;45.01;99700.61;;;;-50
2021/05/05 11:10:03;;;;;;;1.16;1.06;;;;;;;19.29;45.06;99701.02;;;;-50
2021/05/05 11:13:03;;;;;;;1.32;1.18;;;;;;;19.28;45.06;99697.45;;;;-50
2021/05/05 11:16:03;;;;;;;1.15;1.03;;;;;;;19.27;45.02;99688.02;;;;-50
2021/05/05 11:19:03;;;;;;;1.17;1.09;;;;;;;19.26;45.02;99683.41;;;;-49
2021/05/05 11:22:03;;;;;;;1.87;1.00;;;;;;;19.26;45.00;99687.30;;;;-49
2021/05/05 11:25:03;;;;;;;1.17;1.07;;;;;;;19.26;45.01;99672.20;;;;-50
2021/05/05 11:28:04;;;;;;;1.10;1.00;;;;;;;19.25;45.01;99673.50;;;;-50
2021/05/05 11:31:03;;;;;;;1.13;1.03;;;;;;;19.23;45.00;99678.86;;;;-50
2021/05/05 11:34:04;;;;;;;1.22;1.12;;;;;;;19.23;45.00;99680.41;;;;-50
2021/05/05 11:37:03;;;;;;;2.05;1.05;;;;;;;19.22;44.98;99679.29;;;;-50
2021/05/05 11:40:03;;;;;;;1.63;1.16;;;;;;;19.22;44.97;99679.29;;;;-49
2021/05/05 11:43:03;;;;;;;1.16;1.00;;;;;;;19.22;44.96;99680.11;;;;-50
2021/05/05 11:46:04;;;;;;;2.86;1.16;;;;;;;19.20;44.91;99684.41;;;;-50
2021/05/05 11:49:04;;;;;;;1.23;1.13;;;;;;;19.20;44.97;99679.88;;;;-50
2021/05/05 11:52:03;;;;;;;1.73;1.11;;;;;;;19.19;44.96;99675.48;;;;-50
2021/05/05 11:55:03;;;;;;;1.23;1.10;;;;;;;19.18;44.94;99674.10;;;;-50
2021/05/05 11:58:03;;;;;;;1.04;0.90;;;;;;;19.18;44.96;99690.76;;;;-50
2021/05/05 12:01:03;;;;;;;1.07;1.01;;;;;;;19.17;44.92;99680.30;;;;-50
2021/05/05 12:04:03;;;;;;;1.31;1.03;;;;;;;19.17;44.92;99685.50;;;;-50
2021/05/05 12:07:04;;;;;;;1.21;1.10;;;;;;;19.16;44.89;99684.43;;;;-50
2021/05/05 12:10:04;;;;;;;1.20;1.10;;;;;;;19.15;44.87;99715.39;;;;-50
2021/05/05 12:13:03;;;;;;;1.43;1.15;;;;;;;19.15;44.88;99712.94;;;;-50
2021/05/05 12:16:03;;;;;;;1.32;1.09;;;;;;;19.14;44.86;99715.22;;;;-49
2021/05/05 12:19:03;;;;;;;2.68;1.11;;;;;;;19.14;44.78;99719.28;;;;-50
2021/05/05 12:22:04;;;;;;;4.99;1.06;;;;;;;19.13;44.87;99716.35;;;;-49
2021/05/05 12:25:03;;;;;;;2.11;1.10;;;;;;;19.12;44.87;99714.83;;;;-50
2021/05/05 12:28:04;;;;;;;2.89;1.10;;;;;;;19.11;44.86;99711.34;;;;-49
2021/05/05 12:31:03;;;;;;;1.43;1.05;;;;;;;19.11;44.89;99714.76;;;;-50
2021/05/05 12:34:05;;;;;;;2.07;1.07;;;;;;;19.12;44.85;99715.97;;;;-50
2021/05/05 12:37:03;;;;;;;1.28;1.09;;;;;;;19.10;44.86;99726.92;;;;-50
2021/05/05 12:40:04;;;;;;;2.82;1.13;;;;;;;19.09;44.88;99722.08;;;;-50
2021/05/05 12:43:03;;;;;;;1.10;1.00;;;;;;;19.09;44.88;99728.46;;;;-50
2021/05/05 12:46:03;;;;;;;1.25;0.94;;;;;;;19.08;44.88;99728.16;;;;-50
2021/05/05 12:49:03;;;;;;;1.00;0.93;;;;;;;19.08;44.82;99732.70;;;;-50
2021/05/05 12:52:04;;;;;;;2.07;1.10;;;;;;;19.08;44.82;99728.89;;;;-50
2021/05/05 12:55:03;;;;;;;2.57;1.01;;;;;;;19.07;44.83;99730.53;;;;-50
2021/05/05 12:58:03;;;;;;;1.03;0.95;;;;;;;19.08;44.83;99731.89;;;;-50
2021/05/05 13:01:03;;;;;;;1.23;1.12;;;;;;;19.07;44.80;99723.13;;;;-50
2021/05/05 13:04:04;;;;;;;0.98;0.98;;;;;;;19.07;44.80;99723.46;;;;-50
2021/05/05 13:07:04;;;;;;;5.37;1.14;;;;;;;19.09;44.92;99719.95;;;;-52
2021/05/05 13:10:04;;;;;;;6.43;1.33;;;;;;;19.09;44.88;99725.14;;;;-50
2021/05/05 13:13:04;;;;;;;3.82;1.20;;;;;;;19.10;44.99;99734.73;;;;-47
2021/05/05 13:16:17;;;;;;;2.47;1.13;;;;;;;19.12;44.97;99741.06;;;;-50
2021/05/05 13:19:24;;;;;;;3.97;1.30;;;;;;;19.13;45.00;99747.78;;;;-54
2021/05/05 13:30:21;;;;;;;3.10;1.00;;;;;;;19.15;44.10;99747.23;;;;-47
2021/05/05 13:33:05;;;;;;;3.11;1.10;;;;;;;19.15;44.83;99747.13;;;;-47
2021/05/05 13:36:03;;;;;;;2.55;1.19;;;;;;;19.16;44.92;99754.84;;;;-46
2021/05/05 13:39:04;;;;;;;1.54;1.10;;;;;;;19.17;45.06;99754.75;;;;-51
2021/05/05 13:42:05;;;;;;;2.48;1.15;;;;;;;19.18;45.05;99760.20;;;;-51
2021/05/05 13:45:03;;;;;;;2.33;1.02;;;;;;;19.20;45.06;99750.94;;;;-54
2021/05/05 13:49:06;;;;;;;1.83;1.10;;;;;;;19.20;45.04;99751.84;;;;-48
2021/05/05 13:52:04;;;;;;;1.23;1.07;;;;;;;19.21;45.07;99750.52;;;;-51
2021/05/05 13:55:03;;;;;;;2.36;1.00;;;;;;;19.22;45.06;99755.00;;;;-57
2021/05/05 13:58:03;;;;;;;1.19;1.09;;;;;;;19.23;45.09;99759.13;;;;-49
2021/05/05 14:01:03;;;;;;;3.25;1.27;;;;;;;19.23;44.52;99769.77;;;;-61
2021/05/05 14:04:03;;;;;;;4.30;1.17;;;;;;;19.22;44.21;99773.42;;;;-53
2021/05/05 14:07:05;;;;;;;3.53;1.23;;;;;;;19.23;44.27;99774.72;;;;-54
2021/05/05 14:10:03;;;;;;;3.93;1.20;;;;;;;19.22;44.67;99774.08;;;;-53
2021/05/05 14:13:03;;;;;;;4.39;1.38;;;;;;;19.23;44.02;99772.11;;;;-51
2021/05/05 14:16:04;;;;;;;4.99;1.23;;;;;;;19.23;44.39;99781.37;;;;-53
2021/05/05 14:19:03;;;;;;;5.84;1.33;;;;;;;19.24;44.28;99807.38;;;;-52
2021/05/05 14:22:03;;;;;;;1.81;1.20;;;;;;;19.26;44.04;99803.48;;;;-52
2021/05/05 14:25:06;;;;;;;2.84;1.13;;;;;;;19.27;44.06;99809.78;;;;-49
2021/05/05 14:28:03;;;;;;;4.75;1.20;;;;;;;19.27;44.44;99812.31;;;;-46
2021/05/05 14:31:03;;;;;;;7.88;1.39;;;;;;;19.27;44.44;99817.19;;;;-57
2021/05/05 14:34:03;;;;;;;2.47;1.31;;;;;;;19.28;44.67;99811.59;;;;-49
2021/05/05 14:37:03;;;;;;;4.57;1.20;;;;;;;19.29;44.82;99819.85;;;;-54
2021/05/05 14:40:05;;;;;;;3.11;1.27;;;;;;;19.30;44.81;99808.34;;;;-47
2021/05/05 14:43:08;;;;;;;2.83;1.20;;;;;;;19.32;44.81;99819.38;;;;-50
2021/05/05 14:46:13;;;;;;;1.71;1.18;;;;;;;19.32;44.82;99817.41;;;;-48
2021/05/05 14:49:03;;;;;;;2.80;1.16;;;;;;;19.32;44.92;99828.70;;;;-53
2021/05/05 14:52:03;;;;;;;2.37;1.12;;;;;;;19.33;44.88;99829.61;;;;-52
2021/05/05 14:55:03;;;;;;;1.53;1.04;;;;;;;19.33;44.95;99821.97;;;;-51
2021/05/05 14:58:07;;;;;;;1.72;1.07;;;;;;;19.32;45.03;99829.02;;;;-48
2021/05/05 15:01:03;;;;;;;2.49;1.13;;;;;;;19.32;44.69;99825.14;;;;-54
2021/05/05 15:04:03;;;;;;;2.47;1.17;;;;;;;19.33;44.92;99824.09;;;;-51
2021/05/05 15:07:04;;;;;;;3.00;1.00;;;;;;;19.33;44.96;99815.96;;;;-50
2021/05/05 15:10:11;;;;;;;2.70;1.09;;;;;;;19.33;44.89;99823.42;;;;-50
2021/05/05 15:13:05;;;;;;;1.79;0.98;;;;;;;19.33;44.94;99827.01;;;;-50
2021/05/05 15:16:32;;;;;;;2.35;1.01;;;;;;;19.33;44.86;99833.99;;;;-50
2021/05/05 15:28:12;;;;;;;1.80;1.01;;;;;;;19.33;45.04;99841.71;;;;-58
2021/05/05 15:34:13;;;;;;;1.59;1.18;;;;;;;19.34;45.01;99822.28;;;;-44
2021/05/05 15:37:04;;;;;;;1.27;0.92;;;;;;;19.34;45.00;99823.66;;;;-45
2021/05/05 15:40:07;;;;;;;1.68;1.25;;;;;;;19.34;45.00;99823.84;;;;-47
2021/05/05 15:43:18;;;;;;;2.77;1.03;;;;;;;19.34;44.98;99824.48;;;;-47
2021/05/05 15:46:16;;;;;;;1.11;1.00;;;;;;;19.35;44.94;99828.30;;;;-52
2021/05/05 15:49:03;;;;;;;1.49;1.09;;;;;;;19.35;44.98;99827.41;;;;-54
2021/05/05 15:52:03;;;;;;;2.17;1.10;;;;;;;19.35;45.01;99837.14;;;;-51
2021/05/05 15:55:05;;;;;;;1.43;1.01;;;;;;;19.35;45.04;99834.30;;;;-52
2021/05/05 15:58:09;;;;;;;1.11;1.03;;;;;;;19.36;45.04;99836.57;;;;-50
2021/05/05 16:01:05;;;;;;;1.77;1.00;;;;;;;19.36;45.05;99836.99;;;;-50
2021/05/05 16:04:35;;;;;;;1.17;1.08;;;;;;;19.36;45.03;99828.36;;;;-49
2021/05/05 16:10:34;;;;;;;1.33;1.03;;;;;;;19.36;45.07;99815.03;;;;-59
2021/05/05 16:13:11;;;;;;;1.17;1.06;;;;;;;19.35;45.07;99829.34;;;;-46
2021/05/05 16:16:03;;;;;;;1.55;0.98;;;;;;;19.35;45.11;99829.34;;;;-49
2021/05/05 16:19:06;;;;;;;1.15;0.99;;;;;;;19.36;45.11;99830.66;;;;-46
2021/05/05 16:22:07;;;;;;;2.65;0.96;;;;;;;19.36;45.09;99831.14;;;;-49
2021/05/05 16:25:20;;;;;;;1.07;1.03;;;;;;;19.35;45.05;99833.17;;;;-51
2021/05/05 16:28:24;;;;;;;1.19;0.98;;;;;;;19.34;45.05;99833.67;;;;-51
2021/05/05 16:31:58;;;;;;;1.73;1.07;;;;;;;19.32;45.00;99835.87;;;;-50
2021/05/05 16:49:09;;;;;;;3.58;1.13;;;;;;;19.36;45.05;99877.76;;;;-43
2021/05/05 16:52:23;;;;;;;1.59;1.10;;;;;;;19.40;45.12;99893.19;;;;-44
2021/05/05 16:55:03;;;;;;;1.30;0.88;;;;;;;19.46;45.31;99900.00;;;;-50
2021/05/05 16:58:18;;;;;;;1.05;0.95;;;;;;;19.52;45.39;99904.30;;;;-50
2021/05/05 17:01:20;;;;;;;0.95;0.85;;;;;;;19.57;45.41;99912.56;;;;-47
2021/05/05 17:08:11;;;;;;;2.14;0.98;;;;;;;19.66;45.34;99919.70;;;;-50
2021/05/05 17:11:03;;;;;;;2.69;0.87;;;;;;;19.71;45.34;99916.85;;;;-50
2021/05/05 17:14:03;;;;;;;1.19;1.09;;;;;;;19.77;45.41;99918.70;;;;-54
2021/05/05 17:17:10;;;;;;;1.93;1.00;;;;;;;19.82;45.35;99918.06;;;;-53
2021/05/05 17:20:08;;;;;;;1.13;0.85;;;;;;;19.84;45.45;99915.34;;;;-52
2021/05/05 17:23:07;;;;;;;1.74;0.93;;;;;;;19.86;45.29;99912.69;;;;-51
2021/05/05 17:26:14;;;;;;;0.90;0.85;;;;;;;19.89;45.30;99913.14;;;;-59
2021/05/05 17:29:14;;;;;;;1.23;0.95;;;;;;;19.92;45.45;99914.50;;;;-54
2021/05/05 17:38:28;;;;;;;2.15;0.99;;;;;;;19.93;44.96;99917.36;;;;-56
2021/05/05 17:44:29;;;;;;;0.97;0.79;;;;;;;19.93;44.79;99926.63;;;;-55
2021/05/05 17:51:24;;;;;;;0.96;0.80;;;;;;;19.95;44.74;99936.22;;;;-56
2021/05/05 18:01:15;;;;;;;0.79;0.79;;;;;;;19.96;44.72;99942.05;;;;-55
2021/05/05 18:13:38;;;;;;;1.33;0.89;;;;;;;20.01;44.58;99963.04;;;;-53
2021/05/05 18:16:12;;;;;;;0.81;0.81;;;;;;;20.01;44.56;99962.14;;;;-56
2021/05/05 18:19:07;;;;;;;0.69;0.69;;;;;;;20.02;44.55;99964.97;;;;-49
2021/05/05 18:22:08;;;;;;;0.81;0.81;;;;;;;20.03;44.55;99969.63;;;;-56
2021/05/05 18:25:27;;;;;;;1.68;0.94;;;;;;;20.04;44.49;99967.55;;;;-49
2021/05/05 18:28:11;;;;;;;0.87;0.87;;;;;;;20.05;44.51;99965.23;;;;-53
2021/05/05 18:31:03;;;;;;;2.20;0.91;;;;;;;20.04;44.49;99968.38;;;;-51
2021/05/05 18:34:03;;;;;;;1.38;0.82;;;;;;;20.05;44.48;99971.07;;;;-54